Time;durP1;ratioP1;P1;durP2;ratioP2;P2;SDS_P1;SDS_P2;PMS_P1;PMS_P2;Temp;Humidity;BMP_temperature;BMP_pressure;BME280_temperature;BME280_humidity;BME280_pressure;Samples;Min_cycle;Max_cycle;Signal;HPM_P1;HPM_P2
2023/01/31 00:01:11;;;;;;;10.88;2.83;;;;;;;3.45;79.11;102385.63;5069754;28;20019;-89
2023/01/31 00:03:38;;;;;;;10.32;2.47;;;;;;;3.43;79.01;102381.22;5087820;28;20028;-88
2023/01/31 00:06:20;;;;;;;10.35;2.75;;;;;;;3.46;79.13;102392.63;5091058;28;20026;-90
2023/01/31 00:08:48;;;;;;;22.73;3.65;;;;;;;3.47;78.71;102398.72;5092324;28;20118;-89
2023/01/31 00:11:15;;;;;;;19.10;3.42;;;;;;;3.43;79.12;102399.53;5092353;28;20489;-89
2023/01/31 00:13:41;;;;;;;11.20;3.33;;;;;;;3.43;78.94;102397.78;5086238;28;20028;-90
2023/01/31 00:16:07;;;;;;;16.15;3.70;;;;;;;3.40;79.19;102395.13;5090796;28;20102;-89
2023/01/31 00:18:33;;;;;;;15.20;3.35;;;;;;;3.35;79.28;102401.16;5057574;28;20024;-89
2023/01/31 00:21:04;;;;;;;16.20;2.95;;;;;;;3.33;78.79;102403.75;5086835;28;20024;-89
2023/01/31 00:23:30;;;;;;;16.77;3.30;;;;;;;3.25;78.76;102400.13;5066773;28;20023;-90
2023/01/31 00:26:09;;;;;;;15.32;2.63;;;;;;;3.28;79.12;102421.97;5071977;28;20479;-89
2023/01/31 00:28:34;;;;;;;16.98;3.13;;;;;;;3.29;79.17;102428.06;5063050;28;20487;-89
2023/01/31 00:30:59;;;;;;;14.05;3.70;;;;;;;3.16;79.31;102407.84;5079216;28;20031;-89
2023/01/31 00:33:24;;;;;;;15.45;2.80;;;;;;;3.14;79.24;102399.97;5069800;28;20024;-90
2023/01/31 00:35:50;;;;;;;16.23;4.63;;;;;;;3.19;79.79;102408.75;5090769;28;20024;-90
2023/01/31 00:38:15;;;;;;;13.65;3.13;;;;;;;3.28;79.50;102418.50;5073698;28;20012;-90
2023/01/31 00:40:40;;;;;;;9.35;2.63;;;;;;;3.27;79.92;102409.78;5091875;28;20032;-90
2023/01/31 00:43:05;;;;;;;12.52;3.03;;;;;;;3.27;79.78;102404.53;5092535;28;20433;-89
2023/01/31 00:45:31;;;;;;;9.57;3.35;;;;;;;3.35;79.80;102411.59;5069513;28;20048;-90
2023/01/31 00:47:56;;;;;;;13.68;2.95;;;;;;;3.29;79.69;102397.59;5065356;28;20046;-90
2023/01/31 00:50:22;;;;;;;16.50;3.10;;;;;;;3.19;79.45;102379.16;5069386;28;20020;-90
2023/01/31 00:52:47;;;;;;;17.55;4.50;;;;;;;3.24;79.56;102393.16;5071501;28;20055;-90
2023/01/31 00:55:13;;;;;;;19.27;3.38;;;;;;;3.21;79.89;102401.81;5064171;28;20024;-90
2023/01/31 00:57:38;;;;;;;16.38;3.47;;;;;;;3.26;79.58;102412.34;5075202;28;20020;-89
2023/01/31 01:00:04;;;;;;;14.77;3.85;;;;;;;3.13;79.54;102389.50;5069901;28;20024;-89
2023/01/31 01:02:29;;;;;;;10.95;3.88;;;;;;;3.05;79.70;102395.47;5082488;28;20052;-89
2023/01/31 01:04:54;;;;;;;17.45;3.42;;;;;;;3.04;79.56;102400.69;5072283;28;20024;-90
2023/01/31 01:07:20;;;;;;;15.20;3.38;;;;;;;2.96;79.36;102391.84;5069883;28;20032;-89
2023/01/31 01:09:45;;;;;;;11.55;3.78;;;;;;;2.95;79.59;102387.50;5069333;28;20024;-90
2023/01/31 01:12:10;;;;;;;16.58;3.80;;;;;;;2.89;79.94;102385.66;5064551;28;20024;-89
2023/01/31 01:14:36;;;;;;;11.00;3.90;;;;;;;2.84;79.95;102366.41;5070752;28;20383;-90
2023/01/31 01:17:01;;;;;;;16.90;4.07;;;;;;;2.85;80.27;102372.53;5070703;28;20085;-89
2023/01/31 01:19:26;;;;;;;20.70;3.67;;;;;;;2.80;80.44;102370.72;5070662;28;20450;-89
2023/01/31 01:21:54;;;;;;;14.52;4.00;;;;;;;2.84;80.38;102371.63;5069729;28;20503;-89
2023/01/31 01:24:19;;;;;;;13.20;3.45;;;;;;;2.78;80.55;102358.47;5064326;28;20553;-90
2023/01/31 01:26:45;;;;;;;11.27;3.88;;;;;;;2.78;80.74;102355.84;5069513;28;20020;-89
2023/01/31 01:29:11;;;;;;;14.63;3.55;;;;;;;2.85;80.77;102368.19;5072911;28;20120;-89
2023/01/31 01:31:38;;;;;;;19.30;3.60;;;;;;;2.84;81.54;102360.28;5070966;28;20357;-89
2023/01/31 01:34:11;;;;;;;17.67;4.22;;;;;;;2.90;81.36;102355.19;5068777;28;20561;-89
2023/01/31 01:36:37;;;;;;;16.38;3.65;;;;;;;2.85;81.06;102354.25;5073258;28;20043;-90
2023/01/31 01:39:04;;;;;;;21.50;4.05;;;;;;;2.91;81.19;102364.78;5072380;28;20059;-89
2023/01/31 01:41:32;;;;;;;18.98;4.72;;;;;;;2.92;81.41;102366.53;5068178;28;20029;-89
2023/01/31 01:43:59;;;;;;;14.07;4.28;;;;;;;2.88;80.90;102346.44;5058115;28;20078;-89
2023/01/31 01:46:42;;;;;;;19.40;3.72;;;;;;;2.96;80.96;102355.28;5073390;28;20048;-89
2023/01/31 01:49:18;;;;;;;20.27;4.95;;;;;;;3.01;81.13;102351.88;5065843;28;20021;-89
2023/01/31 01:51:46;;;;;;;15.40;4.80;;;;;;;2.95;80.93;102343.06;5067470;28;20126;-89
2023/01/31 01:54:17;;;;;;;22.45;5.50;;;;;;;2.93;80.82;102336.94;5068686;28;20064;-89
2023/01/31 01:56:49;;;;;;;17.17;6.03;;;;;;;2.94;80.99;102338.72;5067872;28;20488;-89
2023/01/31 01:59:24;;;;;;;17.73;4.53;;;;;;;2.93;80.68;102337.81;5071698;28;20028;-89
2023/01/31 02:01:49;;;;;;;22.30;5.45;;;;;;;2.89;81.25;102333.41;5069136;28;20066;-89
2023/01/31 02:04:21;;;;;;;20.70;5.40;;;;;;;2.93;81.18;102337.81;5071818;28;20457;-89
2023/01/31 02:06:47;;;;;;;18.00;4.95;;;;;;;2.90;81.07;102335.16;5071712;28;20119;-89
2023/01/31 02:09:26;;;;;;;18.20;5.43;;;;;;;3.04;81.57;102356.28;5071753;28;20025;-89
2023/01/31 02:11:52;;;;;;;27.30;5.22;;;;;;;2.98;82.07;102351.81;5070676;28;20064;-90
2023/01/31 02:14:18;;;;;;;17.52;5.43;;;;;;;3.04;81.90;102354.53;5071072;28;20104;-89
2023/01/31 02:16:43;;;;;;;20.98;5.90;;;;;;;3.16;81.86;102366.03;5070996;28;20431;-89
2023/01/31 02:19:38;;;;;;;27.02;6.38;;;;;;;3.06;81.40;102352.81;5072772;28;20017;-89
2023/01/31 02:22:13;;;;;;;15.82;4.90;;;;;;;3.13;81.44;102364.25;5069889;28;20377;-89
2023/01/31 02:24:43;;;;;;;27.15;6.18;;;;;;;3.11;81.23;102365.94;5070478;28;20503;-89
2023/01/31 02:27:33;;;;;;;25.23;6.18;;;;;;;3.16;81.62;102373.84;5063577;28;20556;-89
2023/01/31 02:30:20;;;;;;;20.55;5.90;;;;;;;3.19;81.61;102379.16;5065236;28;20538;-89
2023/01/31 02:32:57;;;;;;;25.35;7.07;;;;;;;3.15;82.10;102383.44;5070808;28;20040;-89
2023/01/31 02:35:45;;;;;;;23.83;7.00;;;;;;;3.15;81.19;102366.88;5070728;28;20036;-89
2023/01/31 02:38:34;;;;;;;19.85;6.78;;;;;;;3.23;81.73;102376.59;5071003;28;20032;-89
2023/01/31 02:41:05;;;;;;;21.08;6.22;;;;;;;3.23;82.31;102366.16;5069022;28;20082;-89
2023/01/31 02:46:51;;;;;;;23.67;7.47;;;;;;;3.39;82.22;102366.34;5085879;28;20403;-89
2023/01/31 02:49:35;;;;;;;22.65;7.63;;;;;;;3.42;82.39;102367.28;5090689;28;20063;-89
2023/01/31 02:52:26;;;;;;;23.05;7.35;;;;;;;3.46;82.17;102358.63;5075958;28;20055;-89
2023/01/31 02:57:57;;;;;;;25.52;7.70;;;;;;;3.51;82.36;102362.19;5089540;28;20046;-89
2023/01/31 03:00:24;;;;;;;28.23;8.43;;;;;;;3.56;82.11;102357.88;5073408;28;20074;-89
2023/01/31 03:02:49;;;;;;;21.95;8.27;;;;;;;3.57;82.03;102351.78;5075818;28;20024;-89
2023/01/31 03:05:17;;;;;;;21.73;7.07;;;;;;;3.67;82.39;102363.25;5080769;28;20035;-89
2023/01/31 03:07:49;;;;;;;26.70;9.32;;;;;;;3.55;83.16;102343.06;5074063;28;20038;-89
2023/01/31 03:10:26;;;;;;;30.08;9.35;;;;;;;3.78;82.67;102352.94;5091977;28;20036;-89
2023/01/31 03:13:10;;;;;;;27.20;9.35;;;;;;;3.89;82.63;102351.31;5055993;28;20055;-89
2023/01/31 03:19:12;;;;;;;25.20;9.68;;;;;;;3.98;82.28;102354.03;5075760;28;20039;-89
2023/01/31 03:21:51;;;;;;;22.52;9.65;;;;;;;3.91;82.42;102341.72;5084309;28;20104;-89
2023/01/31 03:24:18;;;;;;;25.10;8.73;;;;;;;3.95;82.87;102329.56;5083905;28;20020;-89
2023/01/31 03:26:45;;;;;;;30.52;11.13;;;;;;;3.95;82.82;102333.06;5092029;28;20133;-89
2023/01/31 03:29:14;;;;;;;25.63;10.98;;;;;;;3.88;82.58;102317.28;5072131;28;20089;-89
2023/01/31 03:31:52;;;;;;;21.80;9.23;;;;;;;4.06;82.41;102339.31;5082237;28;20051;-89
2023/01/31 03:34:18;;;;;;;28.95;10.90;;;;;;;3.90;82.60;102321.66;5085239;28;20028;-90
2023/01/31 03:36:54;;;;;;;26.80;10.10;;;;;;;3.94;82.48;102320.84;5090617;28;20036;-89
2023/01/31 03:39:44;;;;;;;31.85;10.57;;;;;;;4.04;82.52;102338.41;5062676;28;20060;-89
2023/01/31 03:42:16;;;;;;;24.83;9.95;;;;;;;4.02;82.88;102327.03;5078158;28;20107;-89
2023/01/31 03:44:54;;;;;;;19.30;8.55;;;;;;;3.97;83.11;102326.13;5065416;28;20028;-89
2023/01/31 03:47:26;;;;;;;25.45;10.00;;;;;;;3.93;82.92;102319.09;5089705;28;20036;-89
2023/01/31 03:49:54;;;;;;;34.03;10.25;;;;;;;4.02;83.16;102326.19;5092463;28;20473;-89
2023/01/31 03:52:28;;;;;;;24.90;9.00;;;;;;;3.95;83.17;102312.13;5073460;28;20023;-89
2023/01/31 03:54:59;;;;;;;29.45;11.15;;;;;;;3.93;83.79;102307.75;5091620;28;20024;-89
2023/01/31 03:57:30;;;;;;;32.70;11.63;;;;;;;3.94;83.11;102305.16;5070628;28;20467;-90
2023/01/31 03:59:59;;;;;;;31.27;10.77;;;;;;;3.96;83.27;102298.19;5090374;28;20477;-90
2023/01/31 04:02:32;;;;;;;34.35;11.65;;;;;;;3.94;83.25;102292.06;5083958;28;20024;-89
2023/01/31 04:05:19;;;;;;;27.95;11.18;;;;;;;4.06;83.05;102315.75;5066822;28;20390;-90
2023/01/31 04:07:45;;;;;;;27.75;10.88;;;;;;;3.95;83.31;102304.28;5070356;28;20434;-89
2023/01/31 04:10:15;;;;;;;22.90;10.23;;;;;;;3.99;83.33;102319.16;5069200;28;20028;-90
2023/01/31 04:12:40;;;;;;;28.02;11.07;;;;;;;3.97;83.27;102307.81;5091465;28;20061;-89
2023/01/31 04:15:07;;;;;;;29.45;10.95;;;;;;;4.09;82.82;102301.81;5090448;28;20024;-90
2023/01/31 04:17:32;;;;;;;31.85;12.45;;;;;;;4.08;82.46;102300.94;5073793;28;20076;-89
2023/01/31 04:19:58;;;;;;;37.33;11.82;;;;;;;3.95;82.96;102309.50;5065102;28;20028;-90
2023/01/31 04:22:23;;;;;;;29.25;11.52;;;;;;;4.00;82.87;102299.09;5089900;28;20835;-89
2023/01/31 04:24:49;;;;;;;33.70;11.35;;;;;;;4.01;83.07;102300.84;5073596;28;20040;-89
2023/01/31 04:27:14;;;;;;;26.77;12.05;;;;;;;3.98;83.21;102314.78;5072400;28;20054;-88
2023/01/31 04:29:39;;;;;;;30.10;11.07;;;;;;;3.87;83.59;102300.72;5072224;28;20101;-89
2023/01/31 04:32:05;;;;;;;27.52;11.35;;;;;;;3.85;83.44;102297.19;5089108;28;20024;-89
2023/01/31 04:34:30;;;;;;;30.80;11.25;;;;;;;3.85;83.51;102284.13;5071859;28;20467;-89
2023/01/31 04:36:55;;;;;;;28.05;10.65;;;;;;;3.88;83.19;102293.75;5091828;28;20089;-89
2023/01/31 04:39:21;;;;;;;33.70;13.00;;;;;;;3.81;83.71;102296.28;5072947;28;20453;-90
2023/01/31 04:41:47;;;;;;;32.58;11.40;;;;;;;3.72;83.56;102284.84;5072383;28;20035;-89
2023/01/31 04:44:12;;;;;;;29.85;11.55;;;;;;;3.68;83.40;102285.66;5089460;28;20536;-89
2023/01/31 04:46:37;;;;;;;24.58;10.10;;;;;;;3.72;83.20;102296.19;5069597;28;20526;-90
2023/01/31 04:49:03;;;;;;;32.00;11.07;;;;;;;3.56;83.18;102284.66;5073261;28;20028;-89
2023/01/31 04:51:28;;;;;;;32.38;11.48;;;;;;;3.57;83.63;102277.69;5090698;28;20369;-89
2023/01/31 04:53:54;;;;;;;32.38;11.27;;;;;;;3.52;83.71;102275.03;5071965;28;20034;-89
2023/01/31 04:56:19;;;;;;;29.98;10.95;;;;;;;3.50;83.96;102268.91;5071299;28;20078;-89
2023/01/31 04:58:44;;;;;;;28.33;11.40;;;;;;;3.43;83.88;102242.69;5088738;28;20106;-89
2023/01/31 05:01:10;;;;;;;29.05;12.55;;;;;;;3.53;84.58;102274.16;5072893;28;20036;-90
2023/01/31 05:03:35;;;;;;;26.65;10.57;;;;;;;3.52;84.02;102264.56;5067961;28;20103;-89
2023/01/31 05:06:01;;;;;;;27.23;11.00;;;;;;;3.47;84.71;102261.03;5086301;28;20020;-89
2023/01/31 05:08:26;;;;;;;23.25;10.90;;;;;;;3.43;85.08;102246.16;5072252;28;20529;-89
2023/01/31 05:10:59;;;;;;;31.67;10.85;;;;;;;3.60;85.10;102271.66;5088971;28;20032;-90
2023/01/31 05:13:25;;;;;;;28.88;12.10;;;;;;;3.55;84.89;102251.53;5072308;28;20364;-89
2023/01/31 05:15:51;;;;;;;33.72;11.48;;;;;;;3.61;84.67;102255.97;5069231;28;20032;-89
2023/01/31 05:18:16;;;;;;;28.83;12.32;;;;;;;3.72;84.74;102267.41;5090846;28;20016;-89
2023/01/31 05:20:42;;;;;;;31.15;12.27;;;;;;;3.77;84.41;102260.47;5091849;28;20028;-89
2023/01/31 05:23:08;;;;;;;30.10;12.13;;;;;;;3.69;84.41;102230.78;5088987;28;20131;-89
2023/01/31 05:25:35;;;;;;;32.35;11.45;;;;;;;3.74;84.14;102241.28;5088614;28;20035;-89
2023/01/31 05:28:01;;;;;;;25.60;12.25;;;;;;;3.82;84.42;102248.34;5071443;28;20032;-89
2023/01/31 05:30:26;;;;;;;26.85;11.20;;;;;;;3.96;84.19;102256.31;5087239;28;20968;-89
2023/01/31 05:32:51;;;;;;;28.05;11.40;;;;;;;4.09;83.16;102239.88;5073767;28;20085;-89
2023/01/31 05:35:18;;;;;;;24.10;11.38;;;;;;;4.23;82.71;102250.47;5072839;28;20032;-89
2023/01/31 05:37:44;;;;;;;28.25;10.75;;;;;;;4.18;82.23;102251.28;5089933;28;20056;-89
2023/01/31 05:40:15;;;;;;;29.40;11.90;;;;;;;4.05;83.22;102261.63;5061079;28;20465;-89
2023/01/31 05:42:40;;;;;;;27.77;11.13;;;;;;;4.14;82.83;102236.41;5071316;28;20032;-90
2023/01/31 05:45:07;;;;;;;28.10;11.77;;;;;;;4.16;82.53;102222.50;5073141;28;20408;-89
2023/01/31 05:47:33;;;;;;;28.27;12.27;;;;;;;4.27;82.08;102233.06;5072605;28;20036;-89
2023/01/31 05:49:58;;;;;;;24.58;10.25;;;;;;;4.20;82.35;102236.50;5073129;28;20082;-89
2023/01/31 05:52:23;;;;;;;25.40;11.65;;;;;;;4.15;81.92;102220.75;5072912;28;20032;-89
2023/01/31 05:54:49;;;;;;;25.88;11.25;;;;;;;4.03;82.65;102237.22;5088017;28;20020;-89
2023/01/31 05:57:14;;;;;;;23.40;10.25;;;;;;;3.90;82.76;102206.56;5085150;28;20024;-89
2023/01/31 05:59:40;;;;;;;22.20;9.68;;;;;;;4.09;82.55;102225.91;5071504;28;20059;-88
2023/01/31 06:02:07;;;;;;;33.80;11.90;;;;;;;4.07;82.59;102227.66;5091149;28;20114;-89
2023/01/31 06:04:32;;;;;;;23.13;10.10;;;;;;;4.06;82.57;102232.00;5067596;28;20042;-89
2023/01/31 06:06:58;;;;;;;25.85;10.70;;;;;;;4.13;82.23;102232.94;5066932;28;20024;-90
2023/01/31 06:09:23;;;;;;;20.85;9.38;;;;;;;4.09;82.48;102241.63;5069423;28;20024;-89
2023/01/31 06:11:48;;;;;;;32.35;10.52;;;;;;;4.07;82.13;102238.13;5082908;28;20092;-89
2023/01/31 06:14:14;;;;;;;27.42;9.55;;;;;;;4.14;82.19;102242.53;5064380;28;20427;-89
2023/01/31 06:16:39;;;;;;;20.75;8.95;;;;;;;4.18;82.02;102239.06;5057711;28;20028;-89
2023/01/31 06:19:04;;;;;;;14.52;7.53;;;;;;;4.15;82.43;102232.94;5088165;28;20373;-89
2023/01/31 06:21:30;;;;;;;23.10;9.50;;;;;;;4.15;82.19;102225.09;5072213;28;20035;-89
2023/01/31 06:23:55;;;;;;;25.13;8.52;;;;;;;4.16;81.92;102232.97;5074458;28;20066;-89
2023/01/31 06:26:20;;;;;;;24.55;8.48;;;;;;;4.18;82.12;102230.34;5074276;28;20032;-89
2023/01/31 06:28:45;;;;;;;27.88;9.02;;;;;;;4.41;81.20;102228.78;5091443;28;20059;-89
2023/01/31 06:31:11;;;;;;;25.17;8.63;;;;;;;4.52;80.94;102244.56;5090819;28;20395;-89
2023/01/31 06:33:37;;;;;;;23.38;9.45;;;;;;;4.47;80.65;102223.59;5070961;28;20461;-89
2023/01/31 06:36:03;;;;;;;24.92;8.40;;;;;;;4.59;80.19;102234.16;5092218;28;20552;-89
2023/01/31 06:38:29;;;;;;;24.63;8.32;;;;;;;4.50;80.26;102217.50;5069634;28;20035;-89
2023/01/31 06:40:54;;;;;;;29.00;9.57;;;;;;;4.51;80.21;102206.16;5071317;28;20024;-88
2023/01/31 06:43:20;;;;;;;26.50;8.88;;;;;;;4.52;80.34;102208.81;5086375;28;20097;-89
2023/01/31 06:45:45;;;;;;;18.70;7.63;;;;;;;4.57;80.20;102224.56;5073945;28;20059;-88
2023/01/31 06:48:11;;;;;;;20.55;8.68;;;;;;;4.66;79.98;102214.13;5092703;28;20024;-88
2023/01/31 06:50:36;;;;;;;19.05;7.88;;;;;;;4.54;79.87;102188.75;5060040;28;20466;-89
2023/01/31 06:53:02;;;;;;;20.08;6.43;;;;;;;4.73;79.92;102215.03;5093283;28;20533;-89
2023/01/31 06:55:28;;;;;;;19.73;8.35;;;;;;;4.70;79.65;102209.78;5068950;28;20027;-89
2023/01/31 06:57:54;;;;;;;23.33;8.38;;;;;;;4.64;79.66;102181.81;5068985;28;20020;-88
2023/01/31 07:00:20;;;;;;;21.95;7.38;;;;;;;4.63;79.62;102185.31;5089611;28;20019;-88
2023/01/31 07:02:46;;;;;;;18.25;7.88;;;;;;;4.59;79.45;102179.16;5071856;28;20146;-89
2023/01/31 07:05:12;;;;;;;20.15;8.23;;;;;;;4.83;79.33;102212.47;5068180;28;20483;-88
2023/01/31 07:07:37;;;;;;;22.25;8.05;;;;;;;4.79;79.20;102187.13;5082189;28;20035;-88
2023/01/31 07:10:03;;;;;;;22.27;7.35;;;;;;;4.81;79.24;102182.78;5085652;28;20035;-88
2023/01/31 07:12:28;;;;;;;13.45;6.57;;;;;;;4.94;79.39;102202.03;5089201;28;20111;-89
2023/01/31 07:14:53;;;;;;;23.77;9.23;;;;;;;4.72;79.82;102179.25;5068313;28;20027;-88
2023/01/31 07:17:21;;;;;;;21.05;7.45;;;;;;;4.85;79.55;102186.31;5073669;28;20537;-88
2023/01/31 07:19:47;;;;;;;18.90;6.65;;;;;;;4.90;79.31;102176.72;5084955;28;20391;-88
2023/01/31 07:22:12;;;;;;;24.00;8.52;;;;;;;4.91;79.21;102180.22;5092373;28;20027;-89
2023/01/31 07:24:37;;;;;;;19.42;7.65;;;;;;;4.94;80.02;102188.94;5072562;28;20036;-89
2023/01/31 07:27:03;;;;;;;18.80;7.38;;;;;;;5.01;79.64;102176.75;5079989;28;20471;-89
2023/01/31 07:29:28;;;;;;;17.58;7.97;;;;;;;4.94;79.70;102170.59;5091529;28;20232;-89
2023/01/31 07:31:54;;;;;;;25.67;8.50;;;;;;;5.10;79.39;102195.16;5090067;28;20054;-88
2023/01/31 07:34:21;;;;;;;23.90;8.70;;;;;;;5.02;79.41;102174.13;5090628;28;20036;-89
2023/01/31 07:36:50;;;;;;;23.85;9.18;;;;;;;5.11;79.14;102187.28;5088674;28;20089;-88
2023/01/31 07:39:15;;;;;;;19.02;7.10;;;;;;;5.11;79.10;102182.03;5070316;28;20498;-89
2023/01/31 07:41:40;;;;;;;19.42;6.88;;;;;;;5.20;78.88;102175.09;5073902;28;20032;-90
2023/01/31 07:44:07;;;;;;;22.77;7.53;;;;;;;5.13;78.85;102166.34;5073519;28;20067;-89
2023/01/31 07:46:33;;;;;;;17.13;6.93;;;;;;;5.19;79.01;102181.22;5087467;28;20076;-89
2023/01/31 07:48:59;;;;;;;18.90;7.28;;;;;;;5.31;78.62;102178.59;5093496;28;20023;-89
2023/01/31 07:51:24;;;;;;;21.08;6.35;;;;;;;5.28;77.94;102157.63;5074879;28;20080;-89
2023/01/31 07:53:50;;;;;;;19.25;6.80;;;;;;;5.30;78.50;102163.75;5088509;28;20028;-89
2023/01/31 07:56:18;;;;;;;19.00;6.25;;;;;;;5.39;78.09;102155.91;5072522;28;20020;-89
2023/01/31 07:58:44;;;;;;;19.88;6.55;;;;;;;5.34;78.74;102155.03;5092746;28;20490;-89
2023/01/31 08:03:57;;;;;;;20.48;6.90;;;;;;;5.35;78.81;102141.91;5090311;28;20042;-89
2023/01/31 08:06:23;;;;;;;19.30;6.50;;;;;;;5.54;78.37;102165.56;5090571;28;20028;-89
2023/01/31 08:08:48;;;;;;;19.23;6.47;;;;;;;5.54;78.18;102158.56;5067982;28;20035;-89
2023/01/31 08:11:13;;;;;;;15.80;5.97;;;;;;;5.61;77.82;102154.22;5073548;28;20595;-89
2023/01/31 08:13:39;;;;;;;19.08;6.32;;;;;;;5.67;77.65;102151.59;5067122;28;20071;-89
2023/01/31 08:16:06;;;;;;;20.58;7.05;;;;;;;5.70;77.85;102153.34;5090912;28;20110;-89
2023/01/31 08:18:32;;;;;;;17.13;6.35;;;;;;;5.67;77.70;102145.47;5090065;28;20479;-89
2023/01/31 08:20:58;;;;;;;14.07;6.50;;;;;;;5.68;77.19;102153.34;5087310;28;20028;-89
2023/01/31 08:23:23;;;;;;;16.35;6.80;;;;;;;5.71;77.17;102141.97;5071815;28;20031;-89
2023/01/31 08:25:48;;;;;;;16.40;6.07;;;;;;;5.65;77.05;102136.72;5091353;28;20028;-89
2023/01/31 08:28:14;;;;;;;17.90;6.50;;;;;;;5.76;76.98;102137.59;5085066;28;20437;-88
2023/01/31 08:30:43;;;;;;;17.77;6.57;;;;;;;5.88;76.82;102148.13;5068096;28;20364;-88
2023/01/31 08:33:10;;;;;;;18.70;7.00;;;;;;;5.89;76.99;102148.09;5075458;28;20058;-88
2023/01/31 08:35:36;;;;;;;14.02;5.72;;;;;;;5.53;77.68;102116.59;5090395;28;21015;-88
2023/01/31 08:38:02;;;;;;;19.02;6.05;;;;;;;5.65;77.70;102142.84;5088831;28;20017;-89
2023/01/31 08:40:28;;;;;;;19.00;6.50;;;;;;;5.71;78.00;102128.84;5086917;28;20035;-89
2023/01/31 08:42:57;;;;;;;15.48;6.30;;;;;;;5.62;77.69;102113.97;5071754;28;20108;-89
2023/01/31 08:45:23;;;;;;;22.48;7.10;;;;;;;5.72;78.41;102130.59;5091180;28;20048;-89
2023/01/31 08:47:55;;;;;;;19.38;6.43;;;;;;;5.67;77.98;102106.13;5089850;28;20028;-89
2023/01/31 08:50:22;;;;;;;13.38;5.45;;;;;;;5.79;77.67;102117.50;5071695;28;20024;-89
2023/01/31 08:53:01;;;;;;;15.00;5.60;;;;;;;5.80;77.93;102115.75;5069929;28;20074;-90
2023/01/31 08:55:28;;;;;;;15.32;6.07;;;;;;;5.69;77.77;102101.72;5094280;28;20040;-89
2023/01/31 08:57:54;;;;;;;15.10;5.45;;;;;;;5.80;77.34;102085.13;5091230;28;20023;-90
2023/01/31 09:00:20;;;;;;;14.27;5.95;;;;;;;5.76;77.28;102083.38;5071236;28;20033;-89
2023/01/31 09:02:55;;;;;;;14.20;5.88;;;;;;;6.05;77.60;102106.13;5090419;28;20032;-89
2023/01/31 09:05:21;;;;;;;16.42;6.38;;;;;;;6.08;77.49;102087.75;5060132;28;20055;-90
2023/01/31 09:07:47;;;;;;;15.15;5.03;;;;;;;6.16;77.35;102085.13;5074042;28;20024;-90
2023/01/31 09:10:12;;;;;;;23.40;6.13;;;;;;;6.19;77.00;102092.97;5088966;28;20034;-90
2023/01/31 09:12:37;;;;;;;10.90;4.60;;;;;;;6.18;76.97;102075.47;5084332;28;20024;-90
2023/01/31 09:15:03;;;;;;;18.58;5.55;;;;;;;6.19;76.97;102053.59;5074738;28;20395;-89
2023/01/31 09:17:29;;;;;;;12.60;4.68;;;;;;;6.21;77.17;102076.34;5055228;28;20035;-90
2023/01/31 09:19:55;;;;;;;17.70;6.75;;;;;;;6.23;76.85;102086.84;5083880;28;20025;-89
2023/01/31 09:22:21;;;;;;;17.73;5.38;;;;;;;6.33;76.99;102080.69;5093033;28;20028;-90
2023/01/31 09:24:47;;;;;;;16.92;5.60;;;;;;;6.73;76.09;102091.94;5074069;28;20027;-90
2023/01/31 09:27:12;;;;;;;14.52;4.82;;;;;;;6.77;75.28;102067.41;5071854;28;20039;-90
2023/01/31 09:29:37;;;;;;;11.43;4.72;;;;;;;6.55;76.72;102060.47;5070206;28;20043;-90
2023/01/31 09:32:03;;;;;;;23.75;4.97;;;;;;;6.90;76.69;102062.94;5085602;28;20031;-89
2023/01/31 09:34:28;;;;;;;15.57;5.10;;;;;;;7.12;75.54;102063.69;5083380;28;20023;-91
2023/01/31 09:36:56;;;;;;;13.27;4.43;;;;;;;8.15;72.38;102058.44;5069961;28;20103;-90
2023/01/31 09:39:22;;;;;;;10.82;4.45;;;;;;;8.18;71.70;102066.31;5070490;28;20094;-91
2023/01/31 09:41:52;;;;;;;17.98;5.63;;;;;;;7.83;72.00;102077.19;5077257;28;20032;-90
2023/01/31 09:44:31;;;;;;;14.77;4.88;;;;;;;7.67;72.80;102076.44;5062200;28;20013;-90
2023/01/31 09:47:03;;;;;;;13.90;4.43;;;;;;;7.68;72.94;102071.16;5072426;28;20512;-89
2023/01/31 09:49:31;;;;;;;18.05;6.10;;;;;;;7.95;72.77;102068.31;5073500;28;20020;-90
2023/01/31 09:52:02;;;;;;;11.45;4.53;;;;;;;8.34;71.57;102067.00;5085998;28;20035;-90
2023/01/31 09:54:35;;;;;;;12.05;4.15;;;;;;;8.72;69.95;102058.69;5070389;28;20044;-91
2023/01/31 09:57:28;;;;;;;15.75;5.03;;;;;;;9.32;69.24;102077.16;5070867;28;20051;-90
2023/01/31 09:59:53;;;;;;;20.13;5.45;;;;;;;9.05;67.56;102086.38;5091894;28;20451;-90
2023/01/31 10:02:27;;;;;;;12.47;4.30;;;;;;;8.87;69.63;102078.72;5072842;28;20111;-90
2023/01/31 10:05:04;;;;;;;12.60;4.15;;;;;;;8.52;70.13;102079.16;5087822;28;20343;-91
2023/01/31 10:07:32;;;;;;;13.02;5.03;;;;;;;8.14;71.01;102054.06;5091880;28;20085;-89
2023/01/31 10:10:07;;;;;;;16.83;4.82;;;;;;;8.00;72.09;102067.38;5094520;28;20475;-90
2023/01/31 10:12:46;;;;;;;14.48;5.32;;;;;;;7.78;72.61;102052.66;5085230;28;20493;-90
2023/01/31 10:15:40;;;;;;;12.73;4.72;;;;;;;7.80;73.33;102074.59;5092226;28;20028;-90
2023/01/31 10:18:13;;;;;;;11.05;7.05;;;;;;;7.81;73.14;102071.06;5077878;28;20028;-91
2023/01/31 10:20:45;;;;;;;17.05;5.75;;;;;;;7.96;73.15;102051.63;5077936;28;20052;-91
2023/01/31 10:23:29;;;;;;;20.02;6.80;;;;;;;7.90;73.17;102040.25;5075852;28;20418;-91
2023/01/31 10:26:17;;;;;;;23.13;6.78;;;;;;;7.88;73.48;102044.69;5095654;28;20035;-91
2023/01/31 10:28:59;;;;;;;18.95;8.45;;;;;;;7.84;73.44;102055.25;5069231;28;20475;-90
2023/01/31 10:31:40;;;;;;;15.55;6.85;;;;;;;7.75;74.17;102072.00;5074146;28;20375;-91
2023/01/31 10:34:08;;;;;;;15.88;7.78;;;;;;;7.77;73.77;102087.78;5089311;28;20043;-91
2023/01/31 10:36:41;;;;;;;16.58;7.40;;;;;;;7.59;74.41;102057.22;5089886;28;20063;-91
2023/01/31 10:39:16;;;;;;;20.85;8.18;;;;;;;7.61;74.88;102063.34;5076040;28;20027;-90
2023/01/31 10:41:52;;;;;;;16.75;9.10;;;;;;;7.71;74.64;102079.94;5090939;28;20122;-90
2023/01/31 10:44:24;;;;;;;26.42;9.75;;;;;;;7.59;74.73;102063.34;5089914;28;20050;-90
2023/01/31 10:46:54;;;;;;;16.52;9.80;;;;;;;7.67;75.15;102058.03;5086873;28;20052;-91
2023/01/31 10:49:23;;;;;;;17.33;9.45;;;;;;;7.53;75.01;102042.34;5070004;28;20032;-91
2023/01/31 10:52:30;;;;;;;27.30;12.55;;;;;;;7.81;75.01;102060.53;5069291;28;20042;-92
2023/01/31 10:55:19;;;;;;;28.02;11.90;;;;;;;8.10;74.28;102061.13;5093493;28;20009;-91
2023/01/31 10:57:46;;;;;;;18.13;8.85;;;;;;;7.88;74.66;102034.16;5070188;28;20025;-89
2023/01/31 11:00:20;;;;;;;25.50;12.73;;;;;;;7.82;74.81;102025.41;5087857;28;20036;-89
2023/01/31 11:02:45;;;;;;;28.17;11.90;;;;;;;7.95;75.29;102042.84;5068608;28;20024;-89
2023/01/31 11:05:18;;;;;;;19.85;10.95;;;;;;;8.01;74.52;102048.03;5089006;28;20039;-89
2023/01/31 11:07:44;;;;;;;23.73;12.60;;;;;;;8.03;74.16;102050.69;5070935;28;20024;-91
2023/01/31 11:10:25;;;;;;;25.60;12.68;;;;;;;8.08;74.38;102041.84;5088693;28;20039;-91
2023/01/31 11:12:58;;;;;;;22.52;11.02;;;;;;;8.21;74.31;102044.31;5077717;28;20029;-91
2023/01/31 11:15:27;;;;;;;26.58;12.80;;;;;;;8.43;73.61;102046.72;5067645;28;20042;-90
2023/01/31 11:17:55;;;;;;;27.92;11.98;;;;;;;8.16;74.50;102018.94;5068117;28;20042;-90
2023/01/31 11:20:26;;;;;;;30.00;13.93;;;;;;;8.23;74.69;102032.03;5072969;28;20024;-90
2023/01/31 11:22:53;;;;;;;23.40;12.30;;;;;;;8.32;74.41;102032.78;5083992;28;20108;-90
2023/01/31 11:25:21;;;;;;;22.15;12.35;;;;;;;8.29;73.95;102000.31;5066901;28;20029;-90
2023/01/31 11:27:48;;;;;;;29.38;12.15;;;;;;;8.30;74.08;102000.31;5069779;28;20043;-91
2023/01/31 11:30:24;;;;;;;25.20;11.68;;;;;;;8.26;74.46;101993.34;5067731;28;20391;-90
2023/01/31 11:32:50;;;;;;;23.85;12.15;;;;;;;8.22;73.95;101986.38;5079523;28;20391;-91
2023/01/31 11:35:15;;;;;;;27.25;11.25;;;;;;;8.30;74.50;102013.50;5068743;28;20070;-90
2023/01/31 11:38:19;;;;;;;23.90;10.17;;;;;;;8.32;74.28;102014.34;5088767;28;20103;-91
2023/01/31 11:40:44;;;;;;;20.67;11.20;;;;;;;8.22;74.52;102003.94;5064523;28;20957;-90
2023/01/31 11:43:24;;;;;;;24.50;11.00;;;;;;;8.24;74.68;102018.81;5071650;28;20031;-90